Flight Track Log - Related Links

Times and Time Zones

All times are in EDT time to prevent confusion due to time zone crossing. See the AAL2222 flight status page for this flight to view local times or setup timezone preferences in your user account.

Time Position Orientation Groundspeed Altitude Reporting Facility
EDT Latitude Longitude Course Direction KTS MPH feet Rate Location/Type
Tue 05:47:46 PM 32.8833 -97.0333 62° Northeast 171 197 1,100  Level Dallas / Fort Worth TRACON
Tue 05:48:17 PM 32.8667 -97.0333 180° South 181 208 2,000 1,648 Climbing Dallas / Fort Worth TRACON
Tue 05:49:17 PM 32.8000 -97.0000 157° South 238 274 3,600 2,118 Climbing Dallas / Fort Worth TRACON
Tue 05:50:00 PM 32.7533 -96.8834 77° East  Level FlightAware Approximate
Tue 05:50:16 PM 32.7667 -96.9333 121° Southeast 265 305 6,200  Level Dallas / Fort Worth TRACON
Tue 05:51:00 PM 32.7846 -96.7628 68° East  Level FlightAware Approximate
Tue 05:51:16 PM 32.7667 -96.8333 90° East 296 341 8,500  Level Dallas / Fort Worth TRACON
Tue 05:52:00 PM 32.8259 -96.6463 62° Northeast  Level FlightAware Approximate
Tue 05:53:09 PM 32.8414 -96.6519 64° Northeast 339 390 11,200  Level Fort Worth Center
Tue 05:54:10 PM 32.8908 -96.5278 65° Northeast 389 448 13,100 2,132 Climbing Fort Worth Center
Tue 05:55:10 PM 32.9358 -96.4158 64° Northeast 408 470 15,500 2,200 Climbing Fort Worth Center
Tue 05:56:10 PM 32.9786 -96.2717 70° East 408 470 17,500 1,700 Climbing Fort Worth Center
Tue 05:57:10 PM 32.9961 -96.1428 81° East 423 487 18,900 1,600 Climbing Fort Worth Center
Tue 05:58:10 PM 33.0194 -95.9839 80° East 444 511 20,700 1,650 Climbing Fort Worth Center
Tue 05:59:10 PM 33.0386 -95.8472 80° East 452 520 22,200 1,500 Climbing Fort Worth Center
Tue 06:00:10 PM 33.0594 -95.6783 82° East 466 536 23,700 1,450 Climbing Fort Worth Center
Tue 06:01:10 PM 33.0783 -95.5392 81° East 466 536 25,100 1,400 Climbing Fort Worth Center
Tue 06:02:10 PM 33.1242 -95.3944 69° East 461 531 26,500 950 Climbing Fort Worth Center
Tue 06:03:10 PM 33.1694 -95.2444 70° East 467 537 27,000 600 Climbing Fort Worth Center
Tue 06:04:10 PM 33.2128 -95.0969 71° East 467 537 27,700 900 Climbing Fort Worth Center
Tue 06:05:10 PM 33.2581 -94.9467 70° East 472 543 28,800 1,250 Climbing Fort Worth Center
Tue 06:06:10 PM 33.3031 -94.7964 70° East 472 543 30,200 1,200 Climbing Fort Worth Center
Tue 06:07:10 PM 33.3478 -94.6483 70° East 472 543 31,200 950 Climbing Fort Worth Center
Tue 06:08:10 PM 33.3925 -94.4975 70° East 472 543 32,100 900 Climbing Fort Worth Center
Tue 06:09:10 PM 33.4369 -94.3517 70° East 472 543 33,000 400 Climbing Fort Worth Center
Tue 06:10:10 PM 33.4792 -94.2033 71° East 472 543 32,900  Descending Fort Worth Center
Tue 06:11:10 PM 33.5275 -94.0547 69° East 472 543 33,000  Climbing Fort Worth Center
Tue 06:12:10 PM 33.5842 -93.9103 65° Northeast 472 543 32,900  Descending Fort Worth Center
Tue 06:13:10 PM 33.6383 -93.7636 66° East 472 543 33,000 36 Climbing Fort Worth Center
Tue 06:14:55 PM 33.7389 -93.4972 66° East 461 531 33,000 -36 Level Memphis Center
Tue 06:15:55 PM 33.7947 -93.3517 65° Northeast 461 531 32,900  Descending Memphis Center
Tue 06:16:55 PM 33.8500 -93.2111 65° Northeast 466 536 33,000 50 Climbing Memphis Center
Tue 06:17:55 PM 33.9056 -93.0653 65° Northeast 466 536 33,000  Level Memphis Center
Tue 06:18:55 PM 33.9608 -92.9167 66° East 466 536 33,000  Level Memphis Center
Tue 06:19:55 PM 34.0158 -92.7731 65° Northeast 471 542 33,000  Level Memphis Center
Tue 06:20:55 PM 34.0578 -92.6564 67° East 471 542 33,000  Level Memphis Center
Tue 06:21:56 PM 34.1147 -92.4947 67° East 477 549 33,000  Level Memphis Center
Tue 06:22:55 PM 34.1694 -92.3506 65° Northeast 472 543 33,000  Level Memphis Center
Tue 06:23:55 PM 34.2239 -92.2036 66° East 472 543 33,000  Level Memphis Center
Tue 06:24:55 PM 34.2758 -92.0589 66° East 472 543 33,000  Level Memphis Center
Tue 06:25:55 PM 34.3300 -91.9139 66° East 472 543 33,000  Level Memphis Center
Tue 06:26:55 PM 34.3819 -91.7664 67° East 472 543 33,000  Level Memphis Center
Tue 06:27:55 PM 34.4419 -91.6064 66° East 472 543 33,000  Level Memphis Center
Tue 06:28:56 PM 34.4914 -91.4608 68° East 472 543 33,000  Level Memphis Center
Tue 06:29:55 PM 34.5467 -91.3178 65° Northeast 472 543 33,000  Level Memphis Center
Tue 06:30:55 PM 34.6000 -91.1722 66° East 472 543 33,000 -50 Level Memphis Center
Tue 06:31:55 PM 34.6508 -91.0236 67° East 472 543 32,900  Descending Memphis Center
Tue 06:32:55 PM 34.7017 -90.8775 67° East 472 543 33,000 50 Climbing Memphis Center
Tue 06:33:55 PM 34.7564 -90.7311 66° East 472 543 33,000 -50 Level Memphis Center
Tue 06:34:55 PM 34.8089 -90.5872 66° East 467 537 32,900  Descending Memphis Center
Tue 06:35:56 PM 34.8550 -90.4533 67° East 472 543 33,000 50 Climbing Memphis Center
Tue 06:36:55 PM 34.9072 -90.3064 67° East 472 543 33,000  Level Memphis Center
Tue 06:37:55 PM 34.9572 -90.1619 67° East 472 543 33,000  Level Memphis Center
Tue 06:38:55 PM 35.0361 -90.0450 50° Northeast 440 506 33,000  Level Memphis Center
Tue 06:39:55 PM 35.1569 -89.9558 31° Northeast 446 513 33,000  Level Memphis Center
Tue 06:40:55 PM 35.1708 -89.8058 83° East 392 451 33,000  Level Memphis Center
Tue 06:41:55 PM 35.1325 -89.6461 106° East 409 471 33,000  Level Memphis Center
Tue 06:42:56 PM 35.0961 -89.4892 106° East 451 519 33,000  Level Memphis Center
Tue 06:43:55 PM 35.0614 -89.3347 105° East 462 532 33,000  Level Memphis Center
Tue 06:44:55 PM 35.0247 -89.1781 106° East 467 537 33,000  Level Memphis Center
Tue 06:45:55 PM 34.9919 -89.0414 106° East 472 543 33,000 -50 Level Memphis Center
Tue 06:46:55 PM 34.9589 -88.8875 105° East 472 543 32,900  Descending Memphis Center
Tue 06:47:55 PM 34.9236 -88.7361 106° East 466 536 33,000 50 Climbing Memphis Center
Tue 06:48:55 PM 34.8881 -88.5797 105° East 466 536 33,000  Level Memphis Center
Tue 06:49:56 PM 34.8525 -88.4339 107° East 465 535 33,000  Level Memphis Center
Tue 06:50:55 PM 34.8167 -88.2803 106° East 465 535 33,000  Level Memphis Center
Tue 06:51:55 PM 34.7761 -88.1044 106° East 471 542 33,000  Level Memphis Center
Tue 06:52:55 PM 34.7419 -87.9511 105° East 476 548 33,000  Level Memphis Center
Tue 06:53:55 PM 34.7075 -87.7981 105° East 469 540 33,000  Level Memphis Center
Tue 06:54:55 PM 34.6667 -87.6453 108° East 478 550 33,000  Level Memphis Center
Tue 06:57:15 PM 34.5944 -87.2914 104° East 484 557 33,000  Level Atlanta Center
Tue 06:58:16 PM 34.5631 -87.1314 103° East 484 557 33,000  Level Atlanta Center
Tue 06:59:16 PM 34.5314 -86.9761 104° East 474 545 33,000  Level Atlanta Center
Tue 07:00:16 PM 34.5017 -86.8189 103° East 474 545 33,000 -300 Level Atlanta Center
Tue 07:01:16 PM 34.4719 -86.6592 103° East 474 545 32,400 -900 Descending Atlanta Center
Tue 07:02:16 PM 34.4375 -86.5019 105° East 474 545 31,200 -1,311 Descending Atlanta Center
Tue 07:03:15 PM 34.4008 -86.3447 106° East 474 545 29,800 -1,450 Descending Atlanta Center
Tue 07:04:16 PM 34.3642 -86.1878 106° East 479 551 28,300 -1,537 Descending Atlanta Center
Tue 07:05:16 PM 34.3292 -86.0336 105° East 479 551 26,700 -1,563 Descending Atlanta Center
Tue 07:06:15 PM 34.2919 -85.8767 106° East 479 551 25,200 -1,600 Descending Atlanta Center
Tue 07:07:16 PM 34.2564 -85.7303 106° East 465 535 23,500 -1,636 Descending Atlanta Center
Tue 07:08:16 PM 34.2211 -85.5661 105° East 457 526 21,900 -1,750 Descending Atlanta Center
Tue 07:09:16 PM 34.1853 -85.4225 107° East 457 526 20,000 -2,319 Descending Atlanta Center
Tue 07:10:15 PM 34.1511 -85.2814 106° East 445 512 17,300 -2,370 Descending Atlanta Center
Tue 07:11:15 PM 34.1192 -85.1478 106° East 428 493 15,300 -1,650 Descending Atlanta Center
Tue 07:12:15 PM 34.0886 -85.0322 108° East 394 453 14,000 -645 Descending Atlanta Center
Tue 07:13:16 PM 34.0247 -84.9411 130° Southeast 349 402 14,000 -595 Level Atlanta Center
Tue 07:14:16 PM 33.9522 -84.8503 134° Southeast 365 420 12,800 -1,000 Descending Atlanta Center
Tue 07:15:16 PM 33.8839 -84.7669 135° Southeast 365 420 12,000 -400 Descending Atlanta Center
Tue 07:16:16 PM 33.8197 -84.6839 133° Southeast 340 391 12,000  Level Atlanta Center
Tue 07:17:16 PM 33.7636 -84.6136 134° Southeast 314 361 12,000 -200 Level Atlanta Center
Tue 07:17:46 PM 33.7333 -84.5833 140° Southeast 262 302 11,700 -1,400 Descending Atlanta TRACON
Tue 07:18:46 PM 33.7333 -84.5000 90° East 253 291 9,900 -1,947 Descending Atlanta TRACON
Tue 07:19:40 PM 33.7333 -84.4167 90° East 254 292 8,000 -1,895 Descending Atlanta TRACON
Tue 07:20:40 PM 33.7333 -84.3500 90° East 241 277 6,300 -1,600 Descending Atlanta TRACON
Tue 07:21:40 PM 33.7167 -84.2833 107° East 208 239 4,800 -1,450 Descending Atlanta TRACON
Tue 07:22:40 PM 33.6833 -84.2667 157° South 180 207 3,400 -1,200 Descending Atlanta TRACON
Tue 07:23:40 PM 33.6500 -84.3167 231° Southwest 170 196 2,400 -900 Descending Atlanta TRACON
Tue 07:24:40 PM 33.6500 -84.3667 270° West 148 170 1,600 -800 Descending Atlanta TRACON
Tue 07:26:00 PM 33.6333 -84.4167 255° West  Level FlightAware Approximate

Login

Don't have an account? Register now (free) for customized features, flight alerts, and more!